createdAt,value
2019-05-12T00:01:25.309Z,2.90
2019-05-12T00:03:57.888Z,2.30
2019-05-12T00:06:28.450Z,2.50
2019-05-12T00:08:58.816Z,2.53
2019-05-12T00:11:29.440Z,2.67
2019-05-12T00:13:59.628Z,3.03
2019-05-12T00:16:29.826Z,3.30
2019-05-12T00:19:00.019Z,3.30
2019-05-12T00:21:31.293Z,3.17
2019-05-12T00:24:13.670Z,3.00
2019-05-12T00:26:44.238Z,3.10
2019-05-12T00:29:14.495Z,3.30
2019-05-12T00:31:44.785Z,3.10
2019-05-12T00:34:15.297Z,2.70
2019-05-12T00:36:45.850Z,3.10
2019-05-12T00:39:19.052Z,3.10
2019-05-12T00:41:49.356Z,3.33
2019-05-12T00:44:19.536Z,3.30
2019-05-12T00:46:50.096Z,3.60
2019-05-12T00:49:20.598Z,4.70
2019-05-12T00:51:50.718Z,4.20
2019-05-12T00:54:21.350Z,3.47
2019-05-12T00:56:51.603Z,3.00
2019-05-12T00:59:21.785Z,3.10
2019-05-12T01:01:51.978Z,3.30
2019-05-12T01:04:22.239Z,3.80
2019-05-12T01:06:52.513Z,3.10
2019-05-12T01:09:23.093Z,3.00
2019-05-12T01:11:53.309Z,3.13
2019-05-12T01:14:23.573Z,3.27
2019-05-12T01:16:53.797Z,3.20
2019-05-12T01:19:24.318Z,3.33
2019-05-12T01:21:54.530Z,3.00
2019-05-12T01:24:27.971Z,3.00
2019-05-12T01:26:58.168Z,3.00
2019-05-12T01:29:28.906Z,3.23
2019-05-12T01:32:07.725Z,2.97
2019-05-12T01:34:38.349Z,3.33
2019-05-12T01:37:23.776Z,3.13
2019-05-12T01:39:54.828Z,3.07
2019-05-12T01:42:25.026Z,3.63
2019-05-12T01:44:55.121Z,3.40
2019-05-12T01:47:25.275Z,3.47
2019-05-12T01:49:57.977Z,3.73
2019-05-12T01:52:28.577Z,3.40
2019-05-12T01:54:59.084Z,3.40
2019-05-12T01:57:29.771Z,3.23
2019-05-12T01:59:59.955Z,3.20
2019-05-12T02:02:30.170Z,3.10
2019-05-12T02:05:08.648Z,2.93
2019-05-12T02:07:44.345Z,3.17
2019-05-12T02:10:17.828Z,3.20
2019-05-12T02:12:49.103Z,2.83
2019-05-12T02:15:19.828Z,3.00
2019-05-12T02:17:50.034Z,2.87
2019-05-12T02:20:20.799Z,3.30
2019-05-12T02:22:51.374Z,3.00
2019-05-12T02:25:21.835Z,2.67
2019-05-12T02:27:52.028Z,2.60
2019-05-12T02:30:22.190Z,2.83
2019-05-12T02:32:58.139Z,3.10
2019-05-12T02:35:24.818Z,3.40
2019-05-12T02:37:55.425Z,2.80
2019-05-12T02:40:25.799Z,2.60
2019-05-12T02:42:56.308Z,3.53
2019-05-12T02:45:26.550Z,3.10
2019-05-12T02:47:56.744Z,3.10
2019-05-12T02:50:37.966Z,3.10
2019-05-12T02:53:08.517Z,3.57
2019-05-12T02:55:39.672Z,3.33
2019-05-12T02:58:15.177Z,3.60
2019-05-12T03:00:46.430Z,2.97
2019-05-12T03:03:19.617Z,3.17
2019-05-12T03:05:54.678Z,3.23
2019-05-12T03:08:25.955Z,2.80
2019-05-12T03:10:57.083Z,3.47
2019-05-12T03:13:27.377Z,3.23
2019-05-12T03:15:57.624Z,3.43
2019-05-12T03:18:27.828Z,3.10
2019-05-12T03:20:58.316Z,3.20
2019-05-12T03:23:28.497Z,2.83
2019-05-12T03:25:59.126Z,3.03
2019-05-12T03:28:29.654Z,3.43
2019-05-12T03:30:59.821Z,3.50
2019-05-12T03:33:35.878Z,3.53
2019-05-12T03:36:08.410Z,3.63
2019-05-12T03:38:36.150Z,3.50
2019-05-12T03:41:06.610Z,3.20
2019-05-12T03:43:36.794Z,3.20
2019-05-12T03:46:06.955Z,3.20
2019-05-12T03:48:37.238Z,3.40
2019-05-12T03:51:08.540Z,3.80
2019-05-12T03:53:38.666Z,3.60
2019-05-12T03:56:09.183Z,4.30
2019-05-12T03:58:39.458Z,3.40
2019-05-12T04:01:09.629Z,3.60
2019-05-12T04:03:40.174Z,3.77
2019-05-12T04:06:10.339Z,4.20
2019-05-12T04:08:40.549Z,3.73
2019-05-12T04:11:10.731Z,3.90
2019-05-12T04:13:41.117Z,4.00
2019-05-12T04:16:11.570Z,4.50
2019-05-12T04:18:44.947Z,3.53
2019-05-12T04:21:15.512Z,4.13
2019-05-12T04:23:45.886Z,3.80
2019-05-12T04:26:17.133Z,3.90
2019-05-12T04:28:47.705Z,3.97
2019-05-12T04:31:17.874Z,4.40
2019-05-12T04:33:48.060Z,4.60
2019-05-12T04:36:18.190Z,4.37
2019-05-12T04:38:48.413Z,4.13
2019-05-12T04:41:20.122Z,4.23
2019-05-12T04:43:50.558Z,4.87
2019-05-12T04:46:20.724Z,4.70
2019-05-12T04:48:50.939Z,3.90
2019-05-12T04:51:21.134Z,4.97
2019-05-12T04:53:54.683Z,4.77
2019-05-12T04:56:25.019Z,4.30
2019-05-12T04:58:55.170Z,4.20
2019-05-12T05:01:26.512Z,4.83
2019-05-12T05:03:56.785Z,4.50
2019-05-12T05:06:26.950Z,5.70
2019-05-12T05:08:57.102Z,4.67
2019-05-12T05:11:27.332Z,4.67
2019-05-12T05:13:58.157Z,4.17
2019-05-12T05:16:28.634Z,4.57
2019-05-12T05:18:59.516Z,3.90
2019-05-12T05:21:29.678Z,4.20
2019-05-12T05:24:00.226Z,3.70
2019-05-12T05:26:33.711Z,3.90
2019-05-12T05:29:04.256Z,3.70
2019-05-12T05:31:34.852Z,3.60
2019-05-12T05:34:05.142Z,3.07
2019-05-12T05:36:35.764Z,3.40
2019-05-12T05:39:07.583Z,3.43
2019-05-12T05:41:40.370Z,3.20
2019-05-12T05:44:10.576Z,2.90
2019-05-12T05:46:48.296Z,2.80
2019-05-12T05:49:13.375Z,2.43
2019-05-12T05:51:48.327Z,2.80
2019-05-12T05:54:15.860Z,2.73
2019-05-12T05:56:57.565Z,3.13
2019-05-12T05:59:21.958Z,2.70
2019-05-12T06:01:52.492Z,3.00
2019-05-12T06:04:23.803Z,3.10
2019-05-12T06:06:56.051Z,3.03
2019-05-12T06:09:26.150Z,2.93
2019-05-12T06:11:59.101Z,2.60
2019-05-12T06:14:28.302Z,3.03
2019-05-12T06:16:58.544Z,2.57
2019-05-12T06:19:28.764Z,2.80
2019-05-12T06:21:59.317Z,2.60
2019-05-12T06:24:29.893Z,2.50
2019-05-12T06:27:01.014Z,3.23
2019-05-12T06:29:33.393Z,2.40
2019-05-12T06:32:06.240Z,2.30
2019-05-12T06:34:36.143Z,2.17
2019-05-12T06:37:12.144Z,2.50
2019-05-12T06:39:38.262Z,2.07
2019-05-12T06:42:14.202Z,2.20
2019-05-12T06:44:40.816Z,2.20
2019-05-12T06:47:14.170Z,2.00
2019-05-12T06:49:48.836Z,2.47
2019-05-12T06:52:16.678Z,1.83
2019-05-12T06:54:51.392Z,1.83
2019-05-12T06:57:25.087Z,1.60
2019-05-12T06:59:52.491Z,1.63
2019-05-12T07:02:24.457Z,1.43
2019-05-12T07:04:59.414Z,1.57
2019-05-12T07:07:27.748Z,1.50
2019-05-12T07:10:10.680Z,1.50
2019-05-12T07:12:33.567Z,1.63
2019-05-12T07:15:03.829Z,1.73
2019-05-12T07:18:13.475Z,1.70
2019-05-12T07:20:43.548Z,1.40
2019-05-12T07:23:14.356Z,1.60
2019-05-12T07:25:44.725Z,1.20
2019-05-12T07:28:14.991Z,1.53
2019-05-12T07:30:45.513Z,1.57
2019-05-12T07:33:15.674Z,1.33
2019-05-12T07:35:45.876Z,1.27
2019-05-12T07:38:21.353Z,1.50
2019-05-12T07:40:50.586Z,1.50
2019-05-12T07:43:21.664Z,1.33
2019-05-12T07:46:02.090Z,1.60
2019-05-12T07:48:25.697Z,1.30
2019-05-12T07:51:00.443Z,1.30
2019-05-12T07:53:28.075Z,1.40
2019-05-12T07:55:58.353Z,1.17
2019-05-12T07:58:28.609Z,1.33
2019-05-12T08:01:02.722Z,1.50
2019-05-12T08:03:30.736Z,1.90
2019-05-12T08:06:03.984Z,1.60
2019-05-12T08:08:33.951Z,1.30
2019-05-12T08:11:04.702Z,1.50
2019-05-12T08:13:37.775Z,1.50
2019-05-12T08:16:06.827Z,1.60
2019-05-12T08:18:40.926Z,1.20
2019-05-12T08:21:09.194Z,1.77
2019-05-12T08:23:39.382Z,1.23
2019-05-12T08:26:13.582Z,1.40
2019-05-12T08:28:43.985Z,1.00
2019-05-12T08:31:14.229Z,1.40
2019-05-12T08:33:44.510Z,1.00
2019-05-12T08:36:16.556Z,1.30
2019-05-12T08:38:46.838Z,0.80
2019-05-12T08:41:18.457Z,1.20
2019-05-12T08:43:55.034Z,1.00
2019-05-12T08:46:24.117Z,1.00
2019-05-12T08:48:59.989Z,1.00
2019-05-12T08:51:26.064Z,1.10
2019-05-12T08:54:02.487Z,1.30
2019-05-12T08:56:28.254Z,1.43
2019-05-12T08:58:58.799Z,1.17
2019-05-12T09:01:30.798Z,1.40
2019-05-12T09:04:06.445Z,1.27
2019-05-12T09:06:34.269Z,1.30
2019-05-12T09:09:07.311Z,1.30
2019-05-12T09:11:37.885Z,1.17
2019-05-12T09:14:08.373Z,1.23
2019-05-12T09:16:38.584Z,1.20
2019-05-12T09:19:10.258Z,1.60
2019-05-12T09:21:40.660Z,1.20
2019-05-12T09:24:15.595Z,1.60
2019-05-12T09:26:43.532Z,1.20
2019-05-12T09:29:13.998Z,1.50
2019-05-12T09:31:44.233Z,1.60
2019-05-12T09:34:16.565Z,1.07
2019-05-12T09:36:51.900Z,1.30
2019-05-12T09:39:18.610Z,1.23
2019-05-12T09:41:52.579Z,1.53
2019-05-12T09:44:26.378Z,1.20
2019-05-12T09:46:53.543Z,1.20
2019-05-12T09:49:31.304Z,1.30
2019-05-12T09:51:56.374Z,1.37
2019-05-12T09:54:35.446Z,1.60
2019-05-12T09:56:59.772Z,1.67
2019-05-12T09:59:33.506Z,1.40
2019-05-12T10:02:03.995Z,1.40
2019-05-12T10:04:34.574Z,1.57
2019-05-12T10:07:05.131Z,1.80
2019-05-12T10:09:35.709Z,2.40
2019-05-12T10:12:07.173Z,2.00
2019-05-12T10:14:40.758Z,2.17
2019-05-12T10:17:09.715Z,1.20
2019-05-12T10:19:40.715Z,1.57
2019-05-12T10:22:11.439Z,1.20
2019-05-12T10:24:54.607Z,1.33
2019-05-12T10:27:13.903Z,1.30
2019-05-12T10:29:44.616Z,1.00
2019-05-12T10:32:15.500Z,1.20
2019-05-12T10:34:46.367Z,1.53
2019-05-12T10:37:19.326Z,1.30
2019-05-12T10:39:49.640Z,1.40
2019-05-12T10:42:19.826Z,1.77
2019-05-12T10:44:50.021Z,1.97
2019-05-12T10:47:20.286Z,1.50
2019-05-12T10:49:50.485Z,1.60
2019-05-12T10:52:21.070Z,1.80
2019-05-12T10:54:53.759Z,1.73
2019-05-12T10:57:23.771Z,1.80
2019-05-12T10:59:54.397Z,1.83
2019-05-12T11:02:26.427Z,2.60
2019-05-12T11:04:57.256Z,2.20
2019-05-12T11:07:28.402Z,1.77
2019-05-12T11:10:03.027Z,1.30
2019-05-12T11:12:33.350Z,1.63
2019-05-12T11:15:06.773Z,1.80
2019-05-12T11:18:06.206Z,1.70
2019-05-12T11:20:36.730Z,1.23
2019-05-12T11:23:06.967Z,1.57
2019-05-12T11:25:37.786Z,1.53
2019-05-12T11:28:07.986Z,1.97
2019-05-12T11:30:38.442Z,1.70
2019-05-12T11:33:08.720Z,1.80
2019-05-12T11:35:38.955Z,2.03
2019-05-12T11:38:09.197Z,2.00
2019-05-12T11:40:39.372Z,2.10
2019-05-12T11:43:09.579Z,2.40
2019-05-12T11:45:39.819Z,2.03
2019-05-12T11:48:10.498Z,1.83
2019-05-12T11:50:46.496Z,1.57
2019-05-12T11:53:13.741Z,1.57
2019-05-12T11:55:44.228Z,1.80
2019-05-12T11:58:14.629Z,2.00
2019-05-12T12:00:48.747Z,1.50
2019-05-12T12:03:18.965Z,1.97
2019-05-12T12:05:49.167Z,2.07
2019-05-12T12:08:19.346Z,1.73
2019-05-12T12:10:49.606Z,1.50
2019-05-12T12:13:25.728Z,1.60
2019-05-12T12:15:52.696Z,1.57
2019-05-12T12:18:23.611Z,1.40
2019-05-12T12:21:02.768Z,1.60
2019-05-12T12:23:26.145Z,1.70
2019-05-12T12:25:57.442Z,1.30
2019-05-12T12:28:27.653Z,1.40
2019-05-12T12:31:01.230Z,1.20
2019-05-12T12:33:31.037Z,1.47
2019-05-12T12:36:04.067Z,1.50
2019-05-12T12:38:34.157Z,1.20
2019-05-12T12:41:04.358Z,1.40
2019-05-12T12:43:34.543Z,1.23
2019-05-12T12:46:10.759Z,1.33
2019-05-12T12:48:43.977Z,1.23
2019-05-12T12:51:17.363Z,1.50
2019-05-12T12:53:45.885Z,1.20
2019-05-12T12:56:27.523Z,1.50
2019-05-12T12:58:48.393Z,1.40
2019-05-12T13:01:26.814Z,1.40
2019-05-12T13:03:50.469Z,1.80
2019-05-12T13:06:20.645Z,1.73
2019-05-12T13:08:50.890Z,1.10
2019-05-12T13:11:32.153Z,1.40
2019-05-12T13:13:53.536Z,1.53
2019-05-12T13:16:23.939Z,1.30
2019-05-12T13:18:54.694Z,1.40
2019-05-12T13:21:24.940Z,1.60
2019-05-12T13:23:55.129Z,1.60
2019-05-12T13:26:26.587Z,1.60
2019-05-12T13:28:57.177Z,2.27
2019-05-12T13:31:27.662Z,1.33
2019-05-12T13:33:58.238Z,1.10
2019-05-12T13:36:29.615Z,1.23
2019-05-12T13:39:01.120Z,1.50
2019-05-12T13:41:32.954Z,1.40
2019-05-12T13:44:03.925Z,1.37
2019-05-12T13:46:34.512Z,1.50
2019-05-12T13:49:04.888Z,1.30
2019-05-12T13:51:35.067Z,1.17
2019-05-12T13:54:05.654Z,1.10
2019-05-12T13:56:35.957Z,1.40
2019-05-12T13:59:11.986Z,0.93
2019-05-12T14:01:40.552Z,1.00
2019-05-12T14:04:11.134Z,1.57
2019-05-12T14:06:41.374Z,1.00
2019-05-12T14:09:13.656Z,1.50
2019-05-12T14:11:44.210Z,1.30
2019-05-12T14:14:15.467Z,0.80
2019-05-12T14:16:53.597Z,0.80
2019-05-12T14:19:18.298Z,1.10
2019-05-12T14:21:48.631Z,0.83
2019-05-12T14:24:18.898Z,0.93
2019-05-12T14:26:49.665Z,1.20
2019-05-12T14:29:20.578Z,0.90
2019-05-12T14:31:59.426Z,1.10
2019-05-12T14:34:24.164Z,1.03
2019-05-12T14:37:05.143Z,0.90
2019-05-12T14:39:26.696Z,1.10
2019-05-12T14:41:57.472Z,1.20
2019-05-12T14:44:28.213Z,0.90
2019-05-12T14:46:58.649Z,0.80
2019-05-12T14:49:30.444Z,1.00
2019-05-12T14:52:03.198Z,0.90
2019-05-12T14:54:34.267Z,0.83
2019-05-12T14:57:04.723Z,0.80
2019-05-12T14:59:40.921Z,0.97
2019-05-12T15:02:08.062Z,0.90
2019-05-12T15:04:38.922Z,1.00
2019-05-12T15:07:11.080Z,1.20
2019-05-12T15:09:41.713Z,1.00
2019-05-12T15:12:13.883Z,1.03
2019-05-12T15:14:44.185Z,1.10
2019-05-12T15:17:22.508Z,1.20
2019-05-12T15:19:46.816Z,0.93
2019-05-12T15:22:17.070Z,1.60
2019-05-12T15:24:49.378Z,0.80
2019-05-12T15:27:19.791Z,1.13
2019-05-12T15:29:56.347Z,1.37
2019-05-12T15:32:23.633Z,1.53
2019-05-12T15:34:54.443Z,1.30
2019-05-12T15:37:29.002Z,0.90
2019-05-12T15:39:56.785Z,0.90
2019-05-12T15:42:27.062Z,1.00
2019-05-12T15:44:57.568Z,0.93
2019-05-12T15:47:29.977Z,0.90
2019-05-12T15:50:00.123Z,0.97
2019-05-12T15:52:37.860Z,0.90
2019-05-12T15:55:04.575Z,0.80
2019-05-12T15:57:34.184Z,1.17
2019-05-12T16:00:05.174Z,0.90
2019-05-12T16:02:35.403Z,0.83
2019-05-12T16:05:06.257Z,0.93
2019-05-12T16:07:39.623Z,1.00
2019-05-12T16:10:09.919Z,1.00
2019-05-12T16:12:40.184Z,0.80
2019-05-12T16:15:17.381Z,0.90
2019-05-12T16:17:45.912Z,0.90
2019-05-12T16:20:16.813Z,0.90
2019-05-12T16:22:47.341Z,1.30
2019-05-12T16:25:20.789Z,1.00
2019-05-12T16:27:49.547Z,1.27
2019-05-12T16:30:25.928Z,1.30
2019-05-12T16:32:54.860Z,1.00
2019-05-12T16:35:26.664Z,0.90
2019-05-12T16:37:56.026Z,0.83
2019-05-12T16:40:26.265Z,1.05
2019-05-12T16:42:59.859Z,0.90
2019-05-12T16:45:28.360Z,1.00
2019-05-12T16:47:59.340Z,1.23
2019-05-12T16:50:30.916Z,1.13
2019-05-12T16:53:01.101Z,1.13
2019-05-12T16:55:44.843Z,1.20
2019-05-12T16:58:03.979Z,0.90
2019-05-12T17:00:39.768Z,0.90
2019-05-12T17:03:06.312Z,1.00
2019-05-12T17:05:36.536Z,0.90
2019-05-12T17:08:07.784Z,1.50
2019-05-12T17:10:38.426Z,0.90
2019-05-12T17:13:13.468Z,1.30
2019-05-12T17:15:43.308Z,0.97
2019-05-12T17:18:13.712Z,1.43
2019-05-12T17:20:47.040Z,1.00
2019-05-12T17:23:16.209Z,1.10
2019-05-12T17:25:46.434Z,0.80
2019-05-12T17:28:16.661Z,0.83
2019-05-12T17:30:46.989Z,1.00
2019-05-12T17:33:22.597Z,1.13
2019-05-12T17:35:49.196Z,1.63
2019-05-12T17:38:21.614Z,1.00
2019-05-12T17:40:58.805Z,1.00
2019-05-12T17:43:23.525Z,0.90
2019-05-12T17:45:59.637Z,1.00
2019-05-12T17:48:25.905Z,1.17
2019-05-12T17:50:56.444Z,0.90
2019-05-12T17:53:30.493Z,1.10
2019-05-12T17:55:58.898Z,0.90
2019-05-12T17:58:29.858Z,1.00
2019-05-12T18:01:01.005Z,0.90
2019-05-12T18:03:31.164Z,1.10
2019-05-12T18:06:03.547Z,1.13
2019-05-12T18:08:38.150Z,1.20
2019-05-12T18:11:11.398Z,1.00
2019-05-12T18:13:39.897Z,1.10
2019-05-12T18:16:11.409Z,1.00
2019-05-12T18:18:43.484Z,1.50
2019-05-12T18:21:21.824Z,1.30
2019-05-12T18:23:45.681Z,1.03
2019-05-12T18:26:16.496Z,1.23
2019-05-12T18:28:46.831Z,1.30
2019-05-12T18:31:17.083Z,1.30
2019-05-12T18:33:52.097Z,1.30
2019-05-12T18:36:19.494Z,1.20
2019-05-12T18:38:49.668Z,1.57
2019-05-12T18:41:19.870Z,1.30
2019-05-12T18:43:50.406Z,1.43
2019-05-12T18:46:21.090Z,1.40
2019-05-12T18:48:54.157Z,1.20
2019-05-12T18:51:23.809Z,2.10
2019-05-12T18:53:57.891Z,1.43
2019-05-12T18:56:27.023Z,1.67
2019-05-12T18:58:57.235Z,2.43
2019-05-12T19:01:29.479Z,1.67
2019-05-12T19:03:59.646Z,1.67
2019-05-12T19:06:29.864Z,1.83
2019-05-12T19:09:00.775Z,1.80
2019-05-12T19:11:41.827Z,1.50
2019-05-12T19:14:04.500Z,1.77
2019-05-12T19:16:35.064Z,2.03
2019-05-12T19:19:09.711Z,1.73
2019-05-12T19:21:38.269Z,1.43
2019-05-12T19:24:13.723Z,1.60
2019-05-12T19:26:40.589Z,1.37
2019-05-12T19:29:10.822Z,1.30
2019-05-12T19:31:45.187Z,1.60
2019-05-12T19:34:19.915Z,1.60
2019-05-12T19:36:49.384Z,1.60
2019-05-12T19:39:17.876Z,1.40
2019-05-12T19:41:48.344Z,1.77
2019-05-12T19:44:20.122Z,1.73
2019-05-12T19:46:51.165Z,1.60
2019-05-12T19:49:26.095Z,1.83
2019-05-12T19:51:55.395Z,1.70
2019-05-12T19:54:30.185Z,2.43
2019-05-12T19:56:58.014Z,1.37
2019-05-12T19:59:28.571Z,1.40
2019-05-12T20:01:59.297Z,1.70
2019-05-12T20:04:33.882Z,1.70
2019-05-12T20:07:03.675Z,1.73
2019-05-12T20:09:34.391Z,1.80
2019-05-12T20:12:08.451Z,1.83
2019-05-12T20:14:37.160Z,1.70
2019-05-12T20:17:07.703Z,1.87
2019-05-12T20:19:38.293Z,1.53
2019-05-12T20:22:09.204Z,1.70
2019-05-12T20:24:39.646Z,2.03
2019-05-12T20:27:10.610Z,1.80
2019-05-12T20:29:43.473Z,1.50
2019-05-12T20:32:14.115Z,1.70
2019-05-12T20:34:51.550Z,1.70
2019-05-12T20:37:16.980Z,1.63
2019-05-12T20:39:51.176Z,1.57
2019-05-12T20:42:23.594Z,1.77
2019-05-12T20:44:57.829Z,1.80
2019-05-12T20:47:26.458Z,2.00
2019-05-12T20:49:57.045Z,1.60
2019-05-12T20:52:27.523Z,1.83
2019-05-12T20:54:59.857Z,1.63
2019-05-12T20:57:30.173Z,2.07
2019-05-12T21:00:04.742Z,2.20
2019-05-12T21:02:33.812Z,1.97
2019-05-12T21:05:09.963Z,1.70
2019-05-12T21:07:37.036Z,1.63
2019-05-12T21:10:07.957Z,2.00
2019-05-12T21:12:40.085Z,1.97
2019-05-12T21:15:16.569Z,2.07
2019-05-12T21:17:46.664Z,1.83
2019-05-12T21:20:16.857Z,1.90
2019-05-12T21:22:47.276Z,2.20
2019-05-12T21:25:18.182Z,2.10
2019-05-12T21:27:53.720Z,2.57
2019-05-12T21:30:20.875Z,2.20
2019-05-12T21:32:56.413Z,2.40
2019-05-12T21:35:25.903Z,2.50
2019-05-12T21:37:55.899Z,2.60
2019-05-12T21:40:30.318Z,2.90
2019-05-12T21:42:58.358Z,2.40
2019-05-12T21:45:30.886Z,2.60
2019-05-12T21:48:00.510Z,2.53
2019-05-12T21:50:36.227Z,2.53
2019-05-12T21:53:04.330Z,2.70
2019-05-12T21:55:36.329Z,2.50
2019-05-12T21:58:12.168Z,2.27
2019-05-12T22:00:44.826Z,2.47
2019-05-12T22:03:15.711Z,2.30
2019-05-12T22:05:51.614Z,2.63
2019-05-12T22:08:23.117Z,2.27
2019-05-12T22:10:54.197Z,2.43
2019-05-12T22:13:24.922Z,2.27
2019-05-12T22:15:57.124Z,1.97
2019-05-12T22:18:27.803Z,2.43
2019-05-12T22:21:03.363Z,2.30
2019-05-12T22:23:30.173Z,2.17
2019-05-12T22:26:00.568Z,2.03
2019-05-12T22:28:30.845Z,2.30
2019-05-12T22:31:01.265Z,2.43
2019-05-12T22:33:33.391Z,2.33
2019-05-12T22:36:13.937Z,2.40
2019-05-12T22:38:36.727Z,2.63
2019-05-12T22:41:07.469Z,3.00
2019-05-12T22:43:41.132Z,2.60
2019-05-12T22:46:16.141Z,2.30
2019-05-12T22:48:45.290Z,2.37
2019-05-12T22:51:23.357Z,2.80
2019-05-12T22:53:47.699Z,2.47
2019-05-12T22:56:18.956Z,2.77
2019-05-12T22:58:51.983Z,2.50
2019-05-12T23:01:23.539Z,3.13
2019-05-12T23:03:56.048Z,2.30
2019-05-12T23:06:27.530Z,2.70
2019-05-12T23:08:58.183Z,2.60
2019-05-12T23:11:37.555Z,2.90
2019-05-12T23:14:03.839Z,2.63
2019-05-12T23:16:33.804Z,3.70
2019-05-12T23:19:10.530Z,2.97
2019-05-12T23:21:36.504Z,2.90
2019-05-12T23:24:07.171Z,2.57
2019-05-12T23:26:42.029Z,3.23
2019-05-12T23:29:10.016Z,3.10
2019-05-12T23:31:41.721Z,3.17
2019-05-12T23:34:14.338Z,2.80
2019-05-12T23:36:44.135Z,2.83
2019-05-12T23:39:14.982Z,2.70
2019-05-12T23:41:45.474Z,2.80
2019-05-12T23:44:15.968Z,3.03
2019-05-12T23:46:46.232Z,2.90
2019-05-12T23:49:16.458Z,2.97
2019-05-12T23:51:47.522Z,3.07
2019-05-12T23:54:17.775Z,3.27
2019-05-12T23:56:48.263Z,3.67
2019-05-12T23:59:18.874Z,3.40
